Time,TemperatureF,DewpointF,PressureIn,WindDirection,WindDirectionDegrees,WindSpeedMPH,WindSpeedGustMPH,Humidity,HourlyPrecipIn,Conditions,Clouds,dailyrainin,SoftwareType,DateUTC
2013-05-03 18:51:00,35.5,32.9,30.23,NE,45,3.0,10.0,90,0.01,,---,0.02,VWS V13.01,2013-05-03 23:51:00,
2013-05-03 18:52:00,35.4,32.5,30.23,NE,56,2.0,5.0,89,0.00,,---,0.02,VWS V13.01,2013-05-03 23:52:00,
2013-05-03 18:57:00,35.3,32.4,30.23,NE,34,5.0,9.0,89,0.00,,---,0.02,VWS V13.01,2013-05-03 23:57:00,
2013-05-03 19:02:00,35.2,32.3,30.23,NE,40,5.0,10.0,89,0.00,,---,0.02,VWS V13.01,2013-05-04 00:02:00,
2013-05-03 19:07:00,35.2,32.0,30.23,NE,36,2.0,9.0,88,0.00,,---,0.02,VWS V13.01,2013-05-04 00:07:00,
2013-05-03 19:12:00,35.1,31.9,30.23,NNE,28,4.0,9.0,88,0.00,,---,0.02,VWS V13.01,2013-05-04 00:12:00,
2013-05-03 19:17:00,35.0,31.8,30.22,NNE,28,5.0,10.0,88,0.00,,---,0.02,VWS V13.01,2013-05-04 00:17:00,
2013-05-03 19:22:00,34.9,31.7,30.23,NE,40,1.0,5.0,88,0.00,,---,0.02,VWS V13.01,2013-05-04 00:22:00,
2013-05-03 19:27:00,34.7,31.5,30.22,NNE,17,4.0,9.0,88,0.00,,---,0.02,VWS V13.01,2013-05-04 00:27:00,
2013-05-03 19:32:00,34.6,31.4,30.22,NE,54,2.0,9.0,88,0.00,,---,0.02,VWS V13.01,2013-05-04 00:32:00,
2013-05-03 19:37:00,34.4,31.2,30.22,NE,52,4.0,8.0,88,0.00,,---,0.02,VWS V13.01,2013-05-04 00:37:00,
2013-05-03 19:42:00,34.4,31.5,30.22,North,355,6.0,8.0,89,0.00,,---,0.02,VWS V13.01,2013-05-04 00:42:00,
2013-05-03 19:47:00,34.4,31.5,30.22,NE,50,1.0,8.0,89,0.00,,---,0.02,VWS V13.01,2013-05-04 00:47:00,
2013-05-03 19:52:00,34.4,31.5,30.22,NNE,15,3.0,7.0,89,0.00,,---,0.02,VWS V13.01,2013-05-04 00:52:00,
2013-05-03 19:57:00,34.2,31.3,30.22,NE,49,3.0,7.0,89,0.00,,---,0.02,VWS V13.01,2013-05-04 00:57:00,
2013-05-03 20:02:00,34.1,31.2,30.22,NNE,17,5.0,10.0,89,0.00,,---,0.02,VWS V13.01,2013-05-04 01:02:00,
2013-05-03 20:07:00,34.0,31.1,30.22,NNE,33,2.0,12.0,89,0.00,,---,0.02,VWS V13.01,2013-05-04 01:07:00,
2013-05-03 20:12:00,33.9,31.0,30.21,North,5,4.0,12.0,89,0.00,,---,0.02,VWS V13.01,2013-05-04 01:12:00,
2013-05-03 20:17:00,34.0,31.1,30.21,North,9,1.0,12.0,89,0.00,,---,0.02,VWS V13.01,2013-05-04 01:17:00,
2013-05-03 20:22:00,34.0,31.1,30.21,NNE,26,2.0,6.0,89,0.00,,---,0.02,VWS V13.01,2013-05-04 01:22:00,
2013-05-03 20:27:00,34.0,31.1,30.21,NNE,28,5.0,10.0,89,0.00,,---,0.02,VWS V13.01,2013-05-04 01:27:00,
2013-05-03 20:32:00,34.0,30.8,30.20,NNE,24,1.0,10.0,88,0.00,,---,0.02,VWS V13.01,2013-05-04 01:32:00,
2013-05-03 20:37:00,34.0,30.8,30.20,North,5,4.0,14.0,88,0.00,,---,0.02,VWS V13.01,2013-05-04 01:37:00,
2013-05-03 20:42:00,33.9,31.0,30.20,NNE,28,2.0,14.0,89,0.00,,---,0.02,VWS V13.01,2013-05-04 01:42:00,
2013-05-03 20:47:00,33.9,31.0,30.21,NNE,17,2.0,14.0,89,0.00,,---,0.02,VWS V13.01,2013-05-04 01:47:00,
2013-05-03 20:52:00,33.8,30.9,30.21,North,5,0.0,9.0,89,0.00,,---,0.02,VWS V13.01,2013-05-04 01:52:00,
2013-05-03 20:57:00,33.8,30.9,30.21,NE,34,1.0,9.0,89,0.00,,---,0.02,VWS V13.01,2013-05-04 01:57:00,
2013-05-03 21:02:00,33.7,30.8,30.21,NNE,22,4.0,10.0,89,0.00,,---,0.02,VWS V13.01,2013-05-04 02:02:00,
2013-05-03 21:07:00,33.6,30.7,30.21,NE,48,3.0,10.0,89,0.00,,---,0.02,VWS V13.01,2013-05-04 02:07:00,
2013-05-03 21:12:00,33.6,30.7,30.21,ENE,59,3.0,11.0,89,0.00,,---,0.02,VWS V13.01,2013-05-04 02:12:00,
2013-05-03 21:17:00,33.5,30.6,30.21,North,11,10.0,12.0,89,0.00,,---,0.02,VWS V13.01,2013-05-04 02:17:00,
2013-05-03 21:22:00,33.5,30.6,30.21,NE,46,5.0,9.0,89,0.00,,---,0.02,VWS V13.01,2013-05-04 02:22:00,
2013-05-03 21:27:00,33.4,30.5,30.21,North,360,3.0,9.0,89,0.00,,---,0.02,VWS V13.01,2013-05-04 02:27:00,
2013-05-03 21:32:00,33.4,30.8,30.21,NNE,33,6.0,9.0,90,0.00,,---,0.02,VWS V13.01,2013-05-04 02:32:00,
2013-05-03 21:37:00,33.4,30.8,30.21,NE,39,0.0,7.0,90,0.00,,---,0.02,VWS V13.01,2013-05-04 02:37:00,
2013-05-03 21:42:00,33.3,30.7,30.21,NNE,18,2.0,9.0,90,0.00,,---,0.02,VWS V13.01,2013-05-04 02:42:00,
2013-05-03 21:47:00,33.3,30.7,30.21,ENE,59,1.0,9.0,90,0.00,,---,0.02,VWS V13.01,2013-05-04 02:47:00,
2013-05-03 21:52:00,33.3,30.7,30.21,NE,53,2.0,5.0,90,0.00,,---,0.02,VWS V13.01,2013-05-04 02:52:00,
2013-05-03 21:56:00,33.2,30.6,30.21,NNE,20,2.0,7.0,90,0.00,,---,0.02,VWS V13.01,2013-05-04 02:56:00,
2013-05-03 22:01:00,33.2,30.9,30.22,North,355,3.0,7.0,91,0.00,,---,0.02,VWS V13.01,2013-05-04 03:01:00,
2013-05-03 22:06:00,33.1,30.8,30.21,NE,40,4.0,10.0,91,0.00,,---,0.02,VWS V13.01,2013-05-04 03:06:00,
2013-05-03 22:11:00,33.1,30.8,30.21,NNE,22,0.0,10.0,91,0.00,,---,0.02,VWS V13.01,2013-05-04 03:11:00,
2013-05-03 22:16:00,33.0,30.7,30.21,NE,49,4.0,10.0,91,0.00,,---,0.02,VWS V13.01,2013-05-04 03:16:00,
2013-05-03 22:21:00,33.0,30.7,30.21,ENE,63,2.0,9.0,91,0.00,,---,0.02,VWS V13.01,2013-05-04 03:21:00,
2013-05-03 22:26:00,33.0,30.7,30.21,NNE,25,4.0,10.0,91,0.00,,---,0.02,VWS V13.01,2013-05-04 03:26:00,
2013-05-03 22:31:00,33.0,30.7,30.21,NNE,32,2.0,10.0,91,0.00,,---,0.02,VWS V13.01,2013-05-04 03:31:00,
2013-05-03 22:36:00,33.0,30.7,30.21,NE,42,2.0,10.0,91,0.00,,---,0.02,VWS V13.01,2013-05-04 03:36:00,
2013-05-03 22:41:00,33.0,30.7,30.21,NNE,19,4.0,10.0,91,0.00,,---,0.02,VWS V13.01,2013-05-04 03:41:00,
2013-05-03 22:46:00,32.9,30.6,30.21,NNE,14,3.0,10.0,91,0.00,,---,0.02,VWS V13.01,2013-05-04 03:46:00,
2013-05-03 22:51:00,33.0,30.7,30.21,NNE,30,4.0,5.0,91,0.00,,---,0.02,VWS V13.01,2013-05-04 03:51:00,
2013-05-03 22:56:00,32.9,30.6,30.21,ENE,67,2.0,7.0,91,0.00,,---,0.02,VWS V13.01,2013-05-04 03:56:00,
2013-05-03 23:01:00,32.9,30.6,30.22,ENE,67,0.0,7.0,91,0.00,,---,0.02,VWS V13.01,2013-05-04 04:01:00,
2013-05-03 23:02:00,32.9,30.6,30.22,ENE,64,5.0,7.0,91,0.00,,---,0.02,VWS V13.01,2013-05-04 04:02:00,
2013-05-03 23:07:00,32.9,30.6,30.21,NE,41,5.0,6.0,91,0.00,,---,0.02,VWS V13.01,2013-05-04 04:07:00,
2013-05-03 23:12:00,32.9,30.6,30.21,NNE,33,1.0,7.0,91,0.00,,---,0.02,VWS V13.01,2013-05-04 04:12:00,
2013-05-03 23:17:00,32.9,30.6,30.21,NNE,28,1.0,7.0,91,0.00,,---,0.02,VWS V13.01,2013-05-04 04:17:00,
2013-05-03 23:22:00,32.9,30.6,30.20,NNE,33,0.0,6.0,91,0.00,,---,0.02,VWS V13.01,2013-05-04 04:22:00,
2013-05-03 23:27:00,32.9,30.6,30.21,North,360,3.0,6.0,91,0.00,,---,0.02,VWS V13.01,2013-05-04 04:27:00,
2013-05-03 23:32:00,32.9,30.6,30.21,ENE,71,3.0,6.0,91,0.00,,---,0.02,VWS V13.01,2013-05-04 04:32:00,
2013-05-03 23:36:00,32.9,30.6,30.20,North,10,2.0,7.0,91,0.00,,---,0.02,VWS V13.01,2013-05-04 04:36:00,
2013-05-03 23:41:00,32.9,30.6,30.20,NNE,21,0.0,7.0,91,0.00,,---,0.02,VWS V13.01,2013-05-04 04:41:00,
2013-05-03 23:46:00,32.9,30.6,30.20,NE,44,0.0,7.0,91,0.00,,---,0.02,VWS V13.01,2013-05-04 04:46:00,
2013-05-03 23:51:00,32.9,30.6,30.20,NE,38,0.0,4.0,91,0.00,,---,0.02,VWS V13.01,2013-05-04 04:51:00,
2013-05-03 23:56:00,32.9,30.6,30.20,NNE,20,1.0,10.0,91,0.00,,---,0.02,VWS V13.01,2013-05-04 04:56:00,